Terminal Aerodrome Forecast
Issued by NWS

Home | Current Version | Previous Version | Text Only | Print | Product List | Glossary On
Versions: 1 2 3 4 5 6 7 8 9 10 11 12 13 14 15
545
FTUS41 KCAR 030533
TAFFVE
TAF
KFVE 030533Z 0306/0406 00000KT 3SM -RA SCT015 OVC025
     FM030800 VRB03KT 6SM -RA OVC008
     FM031200 05004KT P6SM -RA OVC015
     FM031600 VRB03KT P6SM OVC025
     FM031900 VRB03KT P6SM SCT025 BKN040
     FM040400 00000KT P6SM BKN025=

USA.gov is the U.S. government's official web portal to all federal, state and local government web resources and services.